Time;durP1;ratioP1;P1;durP2;ratioP2;P2;SDS_P1;SDS_P2;PMS_P1;PMS_P2;Temp;Humidity;BMP_temperature;BMP_pressure;BME280_temperature;BME280_humidity;BME280_pressure;Samples;Min_cycle;Max_cycle;Signal;HPM_P1;HPM_P2
2023/12/29 00:02:25;;;;;;;18.33;3.00;;;11.50;99.90;;;;;;6337620;22;20323;-85
2023/12/29 00:05:08;;;;;;;14.68;2.80;;;11.90;99.90;;;;;;6337364;22;20084;-86
2023/12/29 00:07:35;;;;;;;16.33;2.60;;;11.80;99.90;;;;;;6338454;22;20002;-87
2023/12/29 00:10:01;;;;;;;16.17;3.22;;;11.20;99.90;;;;;;6338606;22;20449;-86
2023/12/29 00:12:48;;;;;;;14.98;3.35;;;10.90;99.90;;;;;;6337286;22;20006;-86
2023/12/29 00:15:17;;;;;;;14.20;2.70;;;10.80;99.90;;;;;;6336687;22;20005;-87
2023/12/29 00:17:46;;;;;;;20.27;4.07;;;12.00;99.90;;;;;;6338192;22;20720;-88
2023/12/29 00:20:13;;;;;;;12.63;2.60;;;12.10;99.90;;;;;;6337223;22;19999;-86
2023/12/29 00:22:39;;;;;;;8.70;2.65;;;10.80;99.90;;;;;;6338141;22;20011;-86
2023/12/29 00:25:23;;;;;;;20.52;2.90;;;12.00;99.90;;;;;;6337670;22;20053;-87
2023/12/29 00:27:50;;;;;;;14.40;3.00;;;11.00;99.90;;;;;;6337878;22;20360;-86
2023/12/29 00:30:38;;;;;;;14.55;2.67;;;11.90;99.90;;;;;;6337052;22;20006;-87
2023/12/29 00:33:21;;;;;;;16.55;2.63;;;11.00;99.90;;;;;;6337887;22;20006;-86
2023/12/29 00:35:47;;;;;;;20.88;3.88;;;11.70;99.90;;;;;;6337950;22;20103;-84
2023/12/29 00:38:20;;;;;;;8.52;2.45;;;12.10;99.90;;;;;;6337011;22;20415;-86
2023/12/29 00:40:45;;;;;;;13.65;3.15;;;11.80;99.90;;;;;;6336966;22;20102;-86
2023/12/29 00:43:33;;;;;;;11.57;2.83;;;11.50;99.90;;;;;;6337208;22;20030;-88
2023/12/29 00:46:05;;;;;;;8.80;2.25;;;11.10;99.90;;;;;;6337729;22;20074;-87
2023/12/29 00:48:31;;;;;;;12.48;2.83;;;12.10;99.90;;;;;;6342049;22;20002;-86
2023/12/29 00:51:15;;;;;;;14.35;2.78;;;11.20;99.90;;;;;;6347630;22;20011;-86
2023/12/29 00:53:41;;;;;;;10.15;2.60;;;11.30;99.90;;;;;;6337681;22;20003;-86
2023/12/29 00:56:21;;;;;;;13.15;2.70;;;12.00;99.90;;;;;;6337608;22;20458;-86
2023/12/29 00:59:09;;;;;;;13.70;3.42;;;11.80;99.90;;;;;;6337716;22;20099;-87
2023/12/29 01:01:57;;;;;;;11.20;2.30;;;11.00;99.90;;;;;;6336441;22;20002;-88
2023/12/29 01:04:40;;;;;;;12.93;3.42;;;10.90;99.90;;;;;;6337862;22;20006;-86
2023/12/29 01:07:05;;;;;;;14.95;2.40;;;11.00;99.90;;;;;;6338992;22;19999;-89
2023/12/29 01:09:38;;;;;;;13.23;3.05;;;11.90;99.90;;;;;;6337518;22;20029;-86
2023/12/29 01:12:25;;;;;;;14.13;2.75;;;11.80;99.90;;;;;;6337575;22;20003;-87
2023/12/29 01:15:00;;;;;;;16.75;2.70;;;10.30;99.90;;;;;;6311292;22;20064;-87
2023/12/29 01:17:27;;;;;;;12.45;2.45;;;11.80;99.90;;;;;;6337160;22;20355;-87
2023/12/29 01:19:59;;;;;;;11.48;2.97;;;10.90;99.90;;;;;;6336001;22;20003;-87
2023/12/29 01:22:24;;;;;;;18.35;2.90;;;11.00;99.90;;;;;;6336990;22;20318;-87
2023/12/29 01:24:50;;;;;;;15.00;3.05;;;10.00;99.90;;;;;;6335659;22;20007;-87
2023/12/29 01:27:34;;;;;;;12.88;2.45;;;12.00;99.90;;;;;;6336968;22;20006;-88
2023/12/29 01:30:00;;;;;;;12.07;2.38;;;10.80;99.90;;;;;;6334614;22;20017;-88
2023/12/29 01:32:39;;;;;;;11.32;2.63;;;10.80;99.90;;;;;;6337135;22;20326;-87
2023/12/29 01:35:05;;;;;;;12.02;2.03;;;11.80;99.90;;;;;;6337325;22;20061;-87
2023/12/29 01:37:40;;;;;;;9.65;2.97;;;10.70;99.90;;;;;;6335852;22;20059;-87
2023/12/29 01:40:18;;;;;;;12.07;2.42;;;11.80;99.90;;;;;;6337620;22;19998;-87
2023/12/29 01:43:01;;;;;;;11.90;3.42;;;11.80;99.90;;;;;;6337070;22;20012;-87
2023/12/29 01:45:42;;;;;;;14.20;2.80;;;11.20;99.90;;;;;;6335673;22;20006;-86
2023/12/29 01:48:24;;;;;;;11.07;2.20;;;11.60;99.90;;;;;;6337433;22;20025;-88
2023/12/29 01:51:07;;;;;;;12.43;2.60;;;11.00;99.90;;;;;;6336288;22;20003;-87
2023/12/29 01:53:33;;;;;;;12.20;2.65;;;11.30;99.90;;;;;;6336587;22;20003;-88
2023/12/29 01:59:32;;;;;;;14.98;3.10;;;10.80;99.90;;;;;;6328617;22;20023;-87
2023/12/29 02:01:58;;;;;;;8.55;2.28;;;10.70;99.90;;;;;;6336391;22;20003;-86
2023/12/29 02:04:41;;;;;;;10.18;2.20;;;11.70;99.90;;;;;;6337578;22;20007;-87
2023/12/29 02:07:07;;;;;;;10.15;2.25;;;11.40;99.90;;;;;;6336523;22;20123;-87
2023/12/29 02:09:37;;;;;;;7.72;2.97;;;10.70;99.90;;;;;;6336096;22;20007;-86
2023/12/29 02:12:06;;;;;;;11.82;2.35;;;11.60;99.90;;;;;;6336020;22;20026;-88
2023/12/29 02:14:36;;;;;;;8.95;2.28;;;10.60;99.90;;;;;;6336820;22;20335;-87
2023/12/29 02:17:47;;;;;;;10.80;3.25;;;11.30;99.90;;;;;;6355956;22;20014;-87
2023/12/29 02:20:19;;;;;;;;;;;10.60;99.90;;;;;;6340765;22;20470;-85
2023/12/29 02:23:10;;;;;;;21.20;3.30;;;10.90;99.90;;;;;;6305855;22;20390;-88
2023/12/29 02:25:42;;;;;;;16.98;3.55;;;9.80;99.90;;;;;;6336683;22;20003;-88
2023/12/29 02:28:25;;;;;;;13.70;3.17;;;10.60;99.90;;;;;;6337000;22;19999;-88
2023/12/29 02:34:14;;;;;;;16.30;3.53;;;10.50;99.90;;;;;;6338396;22;20330;-88
2023/12/29 02:36:42;;;;;;;16.70;3.83;;;10.10;99.90;;;;;;6337311;22;20010;-87
2023/12/29 02:39:24;;;;;;;9.27;2.53;;;11.00;99.90;;;;;;6337998;22;20082;-87
2023/12/29 02:41:51;;;;;;;15.68;2.85;;;11.20;99.90;;;;;;6336676;22;19999;-87
2023/12/29 02:44:36;;;;;;;19.17;3.42;;;11.30;99.90;;;;;;6337774;22;20029;-88
2023/12/29 02:47:06;;;;;;;27.85;4.20;;;10.50;99.90;;;;;;6337919;22;20007;-87
2023/12/29 02:49:41;;;;;;;15.90;2.73;;;11.40;99.90;;;;;;6337888;22;20082;-86
2023/12/29 02:52:18;;;;;;;25.17;3.78;;;11.10;99.90;;;;;;6336028;22;20423;-86
2023/12/29 02:55:06;;;;;;;17.98;2.90;;;11.20;99.90;;;;;;6338188;22;20003;-86
2023/12/29 02:57:44;;;;;;;19.90;4.45;;;10.30;99.90;;;;;;6337900;22;20014;-86
2023/12/29 03:00:11;;;;;;;10.35;2.38;;;10.90;99.90;;;;;;6337509;22;20439;-87
2023/12/29 03:02:58;;;;;;;21.88;3.25;;;10.40;99.90;;;;;;6336991;22;20010;-87
2023/12/29 03:05:24;;;;;;;11.48;2.25;;;10.30;99.90;;;;;;6338809;22;20022;-87
2023/12/29 03:07:58;;;;;;;20.98;4.47;;;11.80;99.90;;;;;;6337548;22;20007;-86
2023/12/29 03:10:26;;;;;;;13.18;2.85;;;11.20;99.90;;;;;;6339150;22;20010;-87
2023/12/29 03:13:10;;;;;;;14.43;2.70;;;11.40;99.90;;;;;;6335793;22;20011;-86
2023/12/29 03:15:37;;;;;;;18.83;3.30;;;11.20;99.90;;;;;;6335631;22;20023;-86
2023/12/29 03:18:23;;;;;;;17.52;3.30;;;9.70;99.90;;;;;;6337064;22;20598;-86
2023/12/29 03:20:50;;;;;;;18.30;3.65;;;11.30;99.90;;;;;;6338346;22;20076;-86
2023/12/29 03:23:39;;;;;;;16.88;2.58;;;11.20;99.90;;;;;;6337550;22;20365;-87
2023/12/29 03:26:04;;;;;;;9.60;2.85;;;10.40;99.90;;;;;;6338200;22;20026;-86
2023/12/29 03:28:47;;;;;;;19.42;2.88;;;11.50;99.90;;;;;;6337466;22;20007;-87
2023/12/29 03:31:34;;;;;;;11.68;2.72;;;11.60;99.90;;;;;;6337539;22;20085;-86
2023/12/29 03:34:00;;;;;;;12.05;2.88;;;11.50;99.90;;;;;;6338903;22;20003;-86
2023/12/29 03:36:41;;;;;;;23.77;3.90;;;11.60;99.90;;;;;;6337302;22;20011;-87
2023/12/29 03:39:06;;;;;;;16.67;3.78;;;11.40;99.90;;;;;;6351835;22;20063;-87
2023/12/29 03:41:47;;;;;;;18.80;4.07;;;11.30;99.90;;;;;;6339117;22;19995;-87
2023/12/29 03:44:13;;;;;;;;;;;11.20;99.90;;;;;;6338248;22;20060;-86
2023/12/29 03:46:57;;;;;;;19.40;4.20;;;10.40;99.90;;;;;;6337343;22;19898;-88
2023/12/29 03:49:24;;;;;;;16.75;2.92;;;10.50;99.90;;;;;;6337874;22;20005;-87
2023/12/29 03:51:51;;;;;;;16.75;3.08;;;10.80;99.90;;;;;;6338257;22;20037;-88
2023/12/29 03:54:40;;;;;;;14.88;2.85;;;11.20;99.90;;;;;;6338342;22;19999;-88
2023/12/29 03:57:16;;;;;;;;;;;;;;;;;;;;;
2023/12/29 03:59:52;;;;;;;16.75;3.03;;;10.80;99.90;;;;;;6337731;22;20093;-88
2023/12/29 04:02:18;;;;;;;24.00;4.20;;;10.90;99.90;;;;;;6336355;22;19998;-87
2023/12/29 04:04:43;;;;;;;17.05;3.45;;;11.20;99.90;;;;;;6338698;22;20074;-88
2023/12/29 04:07:18;;;;;;;20.33;4.00;;;11.60;99.90;;;;;;6337021;22;20415;-88
2023/12/29 04:09:44;;;;;;;20.75;3.33;;;10.50;99.90;;;;;;6337974;22;20037;-87
2023/12/29 04:12:10;;;;;;;13.70;3.42;;;10.80;99.90;;;;;;6336647;22;20007;-86
2023/12/29 04:14:38;;;;;;;18.95;3.17;;;11.50;99.90;;;;;;6338126;22;20003;-86
2023/12/29 04:17:26;;;;;;;20.67;3.58;;;11.10;99.90;;;;;;6337488;22;20089;-87
2023/12/29 04:19:51;;;;;;;23.65;3.13;;;10.50;99.90;;;;;;6337494;22;20044;-87
2023/12/29 04:22:36;;;;;;;22.80;4.20;;;10.90;99.90;;;;;;6334005;22;20018;-86
2023/12/29 04:25:02;;;;;;;19.95;3.58;;;10.60;99.90;;;;;;6337465;22;20014;-86
2023/12/29 04:27:43;;;;;;;18.50;3.13;;;10.60;99.90;;;;;;6336711;22;19999;-86
2023/12/29 04:30:09;;;;;;;14.20;2.90;;;11.30;99.90;;;;;;6337558;22;20060;-86
2023/12/29 04:32:53;;;;;;;22.58;4.18;;;10.60;99.90;;;;;;6334662;22;20056;-86
2023/12/29 04:35:20;;;;;;;20.08;3.90;;;10.80;99.90;;;;;;6337821;22;20319;-86
2023/12/29 04:37:46;;;;;;;17.40;3.42;;;11.60;99.90;;;;;;6336410;22;20018;-86
2023/12/29 04:40:27;;;;;;;26.40;3.55;;;11.40;99.90;;;;;;6337521;22;20312;-87
2023/12/29 04:42:53;;;;;;;18.38;3.60;;;11.50;99.90;;;;;;6336626;22;20283;-87
2023/12/29 04:45:21;;;;;;;18.15;3.65;;;11.40;99.90;;;;;;6337284;22;20055;-86
2023/12/29 04:47:48;;;;;;;19.63;3.33;;;11.30;99.90;;;;;;6336021;22;20003;-86
2023/12/29 04:50:22;;;;;;;26.08;3.55;;;10.90;99.90;;;;;;6338567;22;20010;-87
2023/12/29 04:52:48;;;;;;;27.73;4.10;;;10.60;99.90;;;;;;6336122;22;20003;-86
2023/12/29 04:55:17;;;;;;;22.20;4.90;;;12.00;99.90;;;;;;6338361;22;20034;-86
2023/12/29 04:58:01;;;;;;;30.85;5.00;;;10.60;99.90;;;;;;6346899;22;19999;-87
2023/12/29 05:00:54;;;;;;;22.10;4.53;;;11.30;99.90;;;;;;6347142;22;20011;-88
2023/12/29 05:03:19;;;;;;;19.33;4.38;;;10.60;99.90;;;;;;6335950;22;20002;-87
2023/12/29 05:05:48;;;;;;;24.90;3.05;;;11.60;99.90;;;;;;6337819;22;20057;-88
2023/12/29 05:08:14;;;;;;;19.23;2.88;;;10.60;99.90;;;;;;6337096;22;20069;-88
2023/12/29 05:10:58;;;;;;;18.75;4.20;;;11.30;99.90;;;;;;6339255;22;20330;-89
2023/12/29 05:13:50;;;;;;;15.77;3.45;;;10.60;99.90;;;;;;6336871;22;20429;-86
2023/12/29 05:16:16;;;;;;;16.65;3.28;;;9.90;99.90;;;;;;6336862;22;20026;-88
2023/12/29 05:18:42;;;;;;;21.25;3.47;;;11.50;99.90;;;;;;6336233;22;20014;-88
2023/12/29 05:21:16;;;;;;;17.13;3.60;;;11.40;99.90;;;;;;6337409;22;20045;-88
2023/12/29 05:23:46;;;;;;;25.40;4.15;;;10.60;99.90;;;;;;6337164;22;20128;-87
2023/12/29 05:26:18;;;;;;;15.85;2.95;;;11.40;99.90;;;;;;6337992;22;20006;-87
2023/12/29 05:29:02;;;;;;;21.30;4.13;;;11.50;99.90;;;;;;6335675;22;20032;-87
2023/12/29 05:31:28;;;;;;;25.48;3.47;;;11.60;99.90;;;;;;6337765;22;20007;-89
2023/12/29 05:33:55;;;;;;;19.17;3.25;;;11.50;99.90;;;;;;6337493;22;20002;-88
2023/12/29 05:36:39;;;;;;;30.55;3.90;;;10.90;99.90;;;;;;6335733;22;19999;-88
2023/12/29 05:39:06;;;;;;;20.90;4.60;;;10.60;99.90;;;;;;6336562;22;20014;-87
2023/12/29 05:41:50;;;;;;;18.77;3.53;;;10.60;99.90;;;;;;6337730;22;20070;-87
2023/12/29 05:44:37;;;;;;;17.58;3.17;;;10.50;99.90;;;;;;6336133;22;20006;-87
2023/12/29 05:47:23;;;;;;;22.75;2.95;;;10.90;99.90;;;;;;6336709;22;20081;-87
2023/12/29 05:49:49;;;;;;;19.55;3.28;;;10.50;99.90;;;;;;6309278;22;19999;-87
2023/12/29 05:52:15;;;;;;;22.00;4.93;;;10.50;99.90;;;;;;6336614;22;20052;-87
2023/12/29 05:54:54;;;;;;;16.90;3.60;;;10.50;99.90;;;;;;6336453;22;20075;-86
2023/12/29 05:57:19;;;;;;;18.25;4.13;;;10.50;99.90;;;;;;6335397;22;20431;-87
2023/12/29 05:59:45;;;;;;;21.20;4.38;;;10.50;99.90;;;;;;6337621;22;20003;-86
2023/12/29 06:02:19;;;;;;;20.33;3.58;;;10.50;99.90;;;;;;6337704;22;20003;-87
2023/12/29 06:04:45;;;;;;;18.27;3.10;;;10.50;99.90;;;;;;6337584;22;20003;-87
2023/12/29 06:07:12;;;;;;;16.50;2.95;;;10.60;99.90;;;;;;6339021;22;20322;-86
2023/12/29 06:09:56;;;;;;;18.70;3.53;;;10.50;99.90;;;;;;6339717;22;20047;-85
2023/12/29 06:12:21;;;;;;;20.20;2.90;;;10.40;99.90;;;;;;6339462;22;20007;-86
2023/12/29 06:14:47;;;;;;;19.02;3.70;;;10.50;99.90;;;;;;6339890;22;20010;-87
2023/12/29 06:17:32;;;;;;;15.82;2.55;;;10.40;99.90;;;;;;6339847;22;20384;-87
2023/12/29 06:19:58;;;;;;;18.83;4.28;;;10.40;99.90;;;;;;6359236;22;20029;-87
2023/12/29 06:22:27;;;;;;;17.48;2.83;;;10.50;99.90;;;;;;6343664;22;20426;-87
2023/12/29 06:25:05;;;;;;;20.20;2.55;;;10.50;99.90;;;;;;6339110;22;20007;-88
2023/12/29 06:27:37;;;;;;;17.38;3.10;;;10.40;99.90;;;;;;6340383;22;20327;-86
2023/12/29 06:30:27;;;;;;;10.30;3.38;;;10.50;99.90;;;;;;6340087;22;19999;-86
2023/12/29 06:32:54;;;;;;;14.27;2.75;;;10.60;99.90;;;;;;6338373;22;20030;-87
2023/12/29 06:35:38;;;;;;;18.42;3.97;;;10.50;99.90;;;;;;6340692;22;20006;-86
2023/12/29 06:38:04;;;;;;;11.02;2.28;;;10.40;99.90;;;;;;6339586;22;20011;-86
2023/12/29 06:40:31;;;;;;;10.27;2.35;;;10.50;99.90;;;;;;6339081;22;20045;-87
2023/12/29 06:42:57;;;;;;;8.07;1.73;;;10.50;99.90;;;;;;6340190;22;20037;-85
2023/12/29 06:45:23;;;;;;;8.60;1.98;;;9.10;99.90;;;;;;6338301;22;19995;-87
2023/12/29 06:48:01;;;;;;;7.07;2.00;;;10.40;99.90;;;;;;6337987;22;20011;-86
2023/12/29 06:50:27;;;;;;;13.65;3.10;;;10.40;99.90;;;;;;6339731;22;20034;-88
2023/12/29 06:53:12;;;;;;;7.47;2.00;;;10.40;99.90;;;;;;6328321;22;20019;-87
2023/12/29 06:55:38;;;;;;;9.70;2.10;;;10.30;99.90;;;;;;6339098;22;20012;-87
2023/12/29 06:58:05;;;;;;;12.55;3.30;;;10.40;99.90;;;;;;6338204;22;20453;-88
2023/12/29 07:00:43;;;;;;;7.32;2.28;;;10.40;99.90;;;;;;6339020;22;19999;-87
2023/12/29 07:03:30;;;;;;;9.82;2.00;;;10.30;99.90;;;;;;6338617;22;20011;-86
2023/12/29 07:05:57;;;;;;;14.02;2.70;;;10.60;99.90;;;;;;6339569;22;20048;-87
2023/12/29 07:08:38;;;;;;;11.23;3.00;;;10.30;99.90;;;;;;6338676;22;20059;-87
2023/12/29 07:11:04;;;;;;;18.35;3.42;;;10.30;99.90;;;;;;6339839;22;20423;-87
2023/12/29 07:13:46;;;;;;;13.93;3.35;;;10.30;99.90;;;;;;6336009;22;20017;-87
2023/12/29 07:16:13;;;;;;;7.45;2.85;;;10.20;99.90;;;;;;6339468;22;19999;-86
2023/12/29 07:18:47;;;;;;;10.57;3.22;;;10.20;99.90;;;;;;6336983;22;20076;-88
2023/12/29 07:21:14;;;;;;;13.63;3.17;;;10.20;99.90;;;;;;6337079;22;20040;-87
2023/12/29 07:23:58;;;;;;;10.60;3.00;;;10.20;99.90;;;;;;6337654;22;20006;-88
2023/12/29 07:26:24;;;;;;;12.45;3.38;;;10.10;99.90;;;;;;6337868;22;20014;-87
2023/12/29 07:29:08;;;;;;;9.30;2.55;;;10.20;99.90;;;;;;6338625;22;20006;-87
2023/12/29 07:31:39;;;;;;;12.20;2.67;;;10.20;99.90;;;;;;6337444;22;20010;-87
2023/12/29 07:34:24;;;;;;;15.88;2.85;;;10.20;99.90;;;;;;6337930;22;20023;-86
2023/12/29 07:36:51;;;;;;;10.07;2.75;;;10.20;99.90;;;;;;6309873;22;20089;-87
2023/12/29 07:39:23;;;;;;;15.98;3.95;;;10.30;99.90;;;;;;6341592;22;19999;-87
2023/12/29 07:41:54;;;;;;;10.75;2.88;;;10.20;99.90;;;;;;6353134;22;20464;-85
2023/12/29 07:44:22;;;;;;;8.23;2.45;;;10.30;99.90;;;;;;6339252;22;20077;-85
2023/12/29 07:46:48;;;;;;;6.15;2.05;;;10.30;99.90;;;;;;6337202;22;20026;-86
2023/12/29 07:49:26;;;;;;;16.80;2.95;;;10.30;99.90;;;;;;6335881;22;20411;-87
2023/12/29 07:51:52;;;;;;;11.75;2.92;;;10.30;99.90;;;;;;6335570;22;20034;-87
2023/12/29 07:54:23;;;;;;;8.45;2.17;;;10.30;99.90;;;;;;6336998;22;20441;-88
2023/12/29 07:57:01;;;;;;;8.55;2.30;;;10.30;99.90;;;;;;6336683;22;20014;-87
2023/12/29 07:59:28;;;;;;;11.00;2.60;;;11.50;99.90;;;;;;6338355;22;20030;-87
2023/12/29 08:01:59;;;;;;;9.52;2.17;;;11.10;99.90;;;;;;6337567;22;20300;-88
2023/12/29 08:04:26;;;;;;;9.45;2.38;;;10.00;99.90;;;;;;6336005;22;20638;-87
2023/12/29 08:07:09;;;;;;;7.75;2.75;;;10.60;99.90;;;;;;6337299;22;20006;-86
2023/12/29 08:09:35;;;;;;;6.80;2.55;;;11.10;99.90;;;;;;6335186;22;20422;-86
2023/12/29 08:12:01;;;;;;;9.25;2.35;;;11.20;99.90;;;;;;6337073;22;20021;-87
2023/12/29 08:14:41;;;;;;;11.05;2.67;;;11.40;99.90;;;;;;6335789;22;20011;-85
2023/12/29 08:17:08;;;;;;;9.82;2.55;;;11.30;99.90;;;;;;6334425;22;20439;-85
2023/12/29 08:22:50;;;;;;;8.52;2.50;;;10.20;99.90;;;;;;6335798;22;20010;-86
2023/12/29 08:25:41;;;;;;;9.57;2.72;;;11.30;99.90;;;;;;6334459;22;20007;-85
2023/12/29 08:28:35;;;;;;;5.00;2.08;;;10.40;99.90;;;;;;6288773;22;20002;-88
2023/12/29 08:31:28;;;;;;;6.90;1.98;;;10.20;99.90;;;;;;6334900;22;20648;-86
2023/12/29 08:33:54;;;;;;;5.75;1.73;;;10.20;99.90;;;;;;6337508;22;20038;-85
2023/12/29 08:36:45;;;;;;;6.13;2.10;;;10.80;99.90;;;;;;6338730;22;20014;-88
2023/12/29 08:39:11;;;;;;;11.05;2.47;;;9.70;99.90;;;;;;6338935;22;20017;-88
2023/12/29 08:41:37;;;;;;;8.27;2.08;;;10.40;99.90;;;;;;6340618;22;20006;-87
2023/12/29 08:44:14;;;;;;;8.82;2.35;;;10.60;99.90;;;;;;6336021;22;20419;-86
2023/12/29 08:46:42;;;;;;;4.60;1.92;;;11.50;99.90;;;;;;6336658;22;20353;-87
2023/12/29 08:49:08;;;;;;;5.93;1.83;;;11.50;99.90;;;;;;6337356;22;20009;-86
2023/12/29 08:51:34;;;;;;;5.65;1.60;;;10.50;99.90;;;;;;6338590;22;20042;-88
2023/12/29 08:54:09;;;;;;;6.97;1.92;;;11.60;99.90;;;;;;6335321;22;20060;-85
2023/12/29 08:56:44;;;;;;;9.80;1.73;;;10.50;99.90;;;;;;6336114;22;20011;-84
2023/12/29 08:59:09;;;;;;;11.30;1.65;;;11.60;99.90;;;;;;6335147;22;20010;-83
2023/12/29 09:01:35;;;;;;;4.55;1.88;;;11.40;99.90;;;;;;6353940;22;20054;-85
2023/12/29 09:04:19;;;;;;;5.13;1.98;;;12.00;99.90;;;;;;6337685;22;20007;-84
2023/12/29 09:06:45;;;;;;;5.82;1.63;;;11.60;99.90;;;;;;6335791;22;20003;-82
2023/12/29 09:09:30;;;;;;;5.65;1.67;;;11.70;99.90;;;;;;6335041;22;20581;-84
2023/12/29 09:12:00;;;;;;;9.13;1.95;;;10.50;99.90;;;;;;6335922;22;20065;-87
2023/12/29 09:14:37;;;;;;;6.20;1.48;;;11.60;99.90;;;;;;6335915;22;20029;-85
2023/12/29 09:17:03;;;;;;;4.93;1.30;;;11.70;99.90;;;;;;6336299;22;20003;-86
2023/12/29 09:19:35;;;;;;;8.93;1.80;;;11.20;99.90;;;;;;6336486;22;20013;-91
2023/12/29 09:22:20;;;;;;;7.10;1.60;;;10.90;99.90;;;;;;6338753;22;20003;-87
2023/12/29 09:30:55;;;;;;;5.18;1.63;;;10.50;99.90;;;;;;6334734;22;20098;-87
2023/12/29 09:33:42;;;;;;;4.43;1.08;;;11.80;99.90;;;;;;6332229;22;20025;-89
2023/12/29 09:36:36;;;;;;;10.70;2.70;;;10.00;99.90;;;;;;6336083;22;20013;-89
2023/12/29 09:41:33;;;;;;;8.02;1.80;;;10.80;99.90;;;;;;6339267;22;19922;-89
2023/12/29 09:44:24;;;;;;;7.78;2.47;;;12.10;99.90;;;;;;6339975;22;20013;-90
2023/12/29 09:47:22;;;;;;;5.80;2.13;;;10.80;99.90;;;;;;6339889;22;20090;-90
2023/12/29 09:50:21;;;;;;;5.80;1.50;;;10.90;99.90;;;;;;6341732;22;20007;-92
2023/12/29 09:53:09;;;;;;;6.35;1.88;;;10.20;99.90;;;;;;6339918;22;20091;-92
2023/12/29 09:59:17;;;;;;;4.03;1.52;;;10.30;99.90;;;;;;6315717;22;20473;-90
2023/12/29 10:04:29;;;;;;;5.20;1.42;;;11.30;99.90;;;;;;6327754;22;20011;-91
2023/12/29 10:07:19;;;;;;;2.88;1.20;;;10.90;99.90;;;;;;6337843;22;20439;-90
2023/12/29 10:10:16;;;;;;;4.10;1.40;;;10.90;99.90;;;;;;6338829;22;20033;-90
2023/12/29 10:13:09;;;;;;;4.00;1.40;;;10.90;99.90;;;;;;6338393;22;20074;-90
2023/12/29 10:16:12;;;;;;;8.23;1.90;;;10.50;99.90;;;;;;6335706;22;20023;-88
2023/12/29 10:19:26;;;;;;;8.40;2.00;;;11.00;99.90;;;;;;6335381;22;20360;-92
2023/12/29 10:22:29;;;;;;;12.95;1.98;;;11.00;99.90;;;;;;6345019;22;20003;-90
2023/12/29 10:24:55;;;;;;;6.43;1.70;;;10.80;99.90;;;;;;6342450;22;20037;-87
2023/12/29 10:27:40;;;;;;;9.32;1.40;;;12.40;99.90;;;;;;6334258;22;20542;-87
2023/12/29 10:40:00;;;;;;;9.90;1.73;;;11.00;99.90;;;;;;6308930;22;20100;-87
2023/12/29 10:42:27;;;;;;;8.95;1.80;;;11.00;99.90;;;;;;6304787;22;20026;-88
2023/12/29 10:45:10;;;;;;;12.77;1.70;;;12.10;99.90;;;;;;6318697;22;20023;-90
2023/12/29 10:47:48;;;;;;;8.15;1.83;;;11.10;99.90;;;;;;6334356;22;20007;-93
2023/12/29 10:50:47;;;;;;;13.20;1.77;;;11.10;99.90;;;;;;6339131;22;20003;-87
2023/12/29 10:57:14;;;;;;;11.93;1.65;;;10.40;99.90;;;;;;6339691;22;20033;-91
2023/12/29 10:59:42;;;;;;;11.95;2.10;;;10.70;99.90;;;;;;6338772;22;20036;-89
2023/12/29 11:02:20;;;;;;;12.80;2.75;;;11.80;99.90;;;;;;6334834;22;20003;-85
2023/12/29 11:05:33;;;;;;;11.48;2.63;;;11.10;99.90;;;;;;6337455;22;20003;-86
2023/12/29 11:08:23;;;;;;;11.13;2.00;;;11.10;99.90;;;;;;6339142;22;20439;-90
2023/12/29 11:11:07;;;;;;;17.77;2.88;;;11.90;99.90;;;;;;6334189;22;20076;-87
2023/12/29 11:13:53;;;;;;;10.68;2.08;;;12.10;99.90;;;;;;6335103;22;20085;-89
2023/12/29 11:16:52;;;;;;;14.65;2.10;;;11.10;99.90;;;;;;6341117;22;19999;-88
2023/12/29 11:23:34;;;;;;;12.13;2.42;;;11.10;99.90;;;;;;6274944;22;20026;-94
2023/12/29 11:26:20;;;;;;;13.63;1.77;;;10.70;99.90;;;;;;6333744;22;20018;-91
2023/12/29 11:29:37;;;;;;;15.43;2.63;;;11.90;99.90;;;;;;6342158;22;19999;-91
2023/12/29 11:36:23;;;;;;;;;;;;;;;;;;;;;
2023/12/29 11:40:02;;;;;;;24.50;4.28;;;11.30;99.90;;;;;;6296046;22;20094;-87
2023/12/29 11:42:53;;;;;;;14.98;2.80;;;11.20;99.90;;;;;;6219879;22;20001;-92
2023/12/29 11:45:45;;;;;;;25.27;3.15;;;11.30;99.90;;;;;;6240669;22;19988;-90
2023/12/29 11:48:56;;;;;;;11.43;2.20;;;10.60;99.90;;;;;;6215191;23;20005;-90
2023/12/29 11:51:39;;;;;;;15.80;3.20;;;10.60;99.90;;;;;;6215008;23;20001;-92
2023/12/29 11:54:45;;;;;;;19.15;3.58;;;11.30;99.90;;;;;;6214919;23;20015;-88
2023/12/29 11:58:05;;;;;;;17.83;3.35;;;11.30;99.90;;;;;;6212054;23;20012;-88
2023/12/29 12:01:27;;;;;;;19.83;3.42;;;11.20;99.90;;;;;;6098811;23;20069;-91
2023/12/29 12:04:43;;;;;;;17.73;2.92;;;10.90;99.90;;;;;;6123807;23;20002;-91
2023/12/29 12:07:35;;;;;;;25.60;3.53;;;11.30;99.90;;;;;;6121188;23;20158;-84
2023/12/29 12:10:26;;;;;;;23.05;3.95;;;10.90;99.90;;;;;;6126329;23;20077;-87
2023/12/29 12:15:53;;;;;;;18.23;3.28;;;11.40;99.90;;;;;;6374229;22;20029;-88
2023/12/29 12:18:47;;;;;;;27.20;4.00;;;11.10;99.90;;;;;;6371195;22;20014;-89
2023/12/29 12:21:43;;;;;;;23.58;4.18;;;11.30;99.90;;;;;;6369762;22;20007;-89
2023/12/29 12:30:10;;;;;;;15.27;3.75;;;11.30;99.90;;;;;;6339211;22;20027;-87
2023/12/29 12:32:36;;;;;;;18.05;3.78;;;11.30;99.90;;;;;;6333333;22;20358;-87
2023/12/29 12:35:01;;;;;;;19.90;3.33;;;12.10;99.90;;;;;;6325754;22;21001;-86
2023/12/29 12:40:49;;;;;;;23.42;3.30;;;11.40;99.90;;;;;;6341156;22;20072;-88
2023/12/29 12:46:54;;;;;;;22.60;4.55;;;10.60;99.90;;;;;;6342511;22;20052;-89
2023/12/29 12:49:43;;;;;;;27.80;3.47;;;12.50;99.90;;;;;;6339872;22;20436;-88
2023/12/29 12:52:08;;;;;;;19.63;3.63;;;11.80;99.90;;;;;;6333877;22;20030;-86
2023/12/29 12:54:34;;;;;;;13.82;3.63;;;12.40;99.90;;;;;;6323960;22;20106;-93
2023/12/29 12:57:34;;;;;;;15.00;2.35;;;12.40;99.90;;;;;;6335769;22;20319;-90
2023/12/29 13:00:09;;;;;;;22.20;2.70;;;11.40;99.90;;;;;;6338832;22;19991;-86
2023/12/29 13:02:37;;;;;;;20.73;2.95;;;12.00;99.90;;;;;;6336152;22;20012;-87
2023/12/29 13:05:23;;;;;;;16.45;3.33;;;11.90;99.90;;;;;;6358091;22;19999;-91
2023/12/29 13:07:49;;;;;;;15.57;3.95;;;11.80;99.90;;;;;;6350612;22;20058;-87
2023/12/29 13:13:46;;;;;;;22.83;3.92;;;11.60;99.90;;;;;;6338601;22;20017;-90
2023/12/29 13:16:35;;;;;;;24.90;4.25;;;11.70;99.90;;;;;;6336449;22;20006;-87
2023/12/29 13:19:27;;;;;;;18.10;3.58;;;11.40;99.90;;;;;;6339166;22;20022;-91
2023/12/29 13:22:17;;;;;;;20.60;3.80;;;10.90;99.90;;;;;;6340737;22;20058;-94
2023/12/29 13:28:08;;;;;;;25.02;3.70;;;10.60;99.90;;;;;;6335494;22;20013;-90
2023/12/29 13:30:47;;;;;;;22.65;4.05;;;11.80;99.90;;;;;;6338410;22;19998;-91
2023/12/29 13:33:32;;;;;;;30.30;3.63;;;11.80;99.90;;;;;;6339119;22;20002;-92
2023/12/29 13:36:28;;;;;;;19.55;3.28;;;11.30;99.90;;;;;;6337783;22;20057;-91
2023/12/29 13:39:28;;;;;;;30.35;4.97;;;11.30;99.90;;;;;;6337858;22;20040;-92
2023/12/29 13:42:22;;;;;;;24.35;4.30;;;11.30;99.90;;;;;;6336825;22;20002;-92
2023/12/29 13:45:11;;;;;;;23.77;4.22;;;11.30;99.90;;;;;;6336880;22;20523;-91
2023/12/29 13:48:03;;;;;;;24.23;3.55;;;11.30;99.90;;;;;;6335594;22;20262;-92
2023/12/29 13:50:29;;;;;;;33.05;4.70;;;11.30;99.90;;;;;;6335472;22;20326;-93
2023/12/29 13:53:20;;;;;;;30.45;4.32;;;9.70;99.90;;;;;;6336171;22;20003;-91
2023/12/29 13:56:14;;;;;;;;;;;11.30;99.90;;;;;;6353150;22;20017;-90
2023/12/29 13:59:13;;;;;;;18.88;3.70;;;11.20;99.90;;;;;;6356515;22;19908;-90
2023/12/29 14:02:36;;;;;;;22.30;4.18;;;11.20;99.90;;;;;;6339610;22;20010;-91
2023/12/29 14:09:06;;;;;;;16.02;3.95;;;10.40;99.90;;;;;;6339247;22;20048;-91
2023/12/29 14:11:58;;;;;;;25.27;4.82;;;10.40;99.90;;;;;;6339967;22;20010;-90
2023/12/29 14:14:42;;;;;;;31.23;6.05;;;10.40;99.90;;;;;;6339527;22;20438;-91
2023/12/29 14:17:31;;;;;;;29.00;4.95;;;12.10;99.90;;;;;;6339826;22;20093;-91
2023/12/29 14:23:20;;;;;;;26.23;5.00;;;11.10;99.90;;;;;;6339911;22;20044;-90
2023/12/29 14:25:47;;;;;;;15.25;4.40;;;11.10;99.90;;;;;;6357861;22;19998;-92
2023/12/29 14:28:31;;;;;;;23.00;4.03;;;12.10;99.90;;;;;;6353390;22;19999;-90
2023/12/29 14:31:03;;;;;;;26.73;4.05;;;11.20;99.90;;;;;;6341500;22;20439;-91
2023/12/29 14:33:30;;;;;;;16.38;2.92;;;10.50;99.90;;;;;;6341263;22;20080;-90
2023/12/29 14:36:10;;;;;;;18.20;3.50;;;12.00;99.90;;;;;;6341327;22;20011;-90
2023/12/29 14:38:54;;;;;;;15.65;2.53;;;10.90;99.90;;;;;;6342402;22;20014;-88
2023/12/29 14:41:24;;;;;;;8.77;2.45;;;10.70;99.90;;;;;;6340267;22;20006;-93
2023/12/29 14:44:09;;;;;;;8.88;1.20;;;9.60;99.90;;;;;;6341043;22;20268;-92
2023/12/29 14:46:51;;;;;;;9.20;1.13;;;9.60;99.90;;;;;;6339807;22;20006;-89
2023/12/29 14:49:38;;;;;;;8.63;1.83;;;11.30;99.90;;;;;;6340364;22;20079;-90
2023/12/29 14:52:14;;;;;;;10.75;1.35;;;10.10;99.90;;;;;;6339628;22;20006;-91
2023/12/29 15:06:40;;;;;;;10.18;2.13;;;10.30;99.90;;;;;;6318438;22;20273;-87